Date,TemperatureHighF,TemperatureAvgF,TemperatureLowF,DewpointHighF,DewpointAvgF,DewpointLowF,HumidityHigh,HumidityAvg,HumidityLow,PressureMaxIn,PressureMinIn,WindSpeedMaxMPH,WindSpeedAvgMPH,GustSpeedMaxMPH,PrecipitationSumIn
2013-1-1,32,19,6,29,15,3,95,83,71,29.97,29.71,12,4,21,0.00
2013-1-2,22,13,-4,20,9,-8,92,83,68,30.21,29.89,11,2,17,0.00
2013-1-3,28,15,-8,24,11,-12,93,84,73,30.21,29.90,10,1,17,0.00
2013-1-4,33,30,26,26,23,19,88,76,69,29.90,29.80,14,7,21,0.00
2013-1-5,31,29,24,26,23,20,90,79,67,30.22,29.88,15,5,28,0.00
2013-1-6,36,33,25,32,29,22,95,84,75,30.08,29.83,9,2,14,0.01
2013-1-7,35,23,13,32,21,11,98,89,81,30.33,29.93,10,2,16,0.00
2013-1-8,38,29,21,26,22,18,92,77,59,30.32,30.15,8,2,19,0.07
2013-1-9,46,36,22,35,28,20,92,72,59,30.29,29.89,18,6,25,0.14
2013-1-10,40,32,22,30,25,20,94,77,63,30.53,30.13,14,3,23,0.00
2013-1-11,40,32,22,38,29,20,97,90,80,30.47,29.98,7,2,18,0.16
2013-1-12,47,40,34,43,39,33,98,94,86,30.04,29.98,6,1,12,0.00
2013-1-13,55,48,35,51,46,34,99,93,87,30.02,29.80,9,3,17,0.00
2013-1-14,50,36,30,48,32,23,98,83,74,30.29,29.75,11,4,24,0.02
2013-1-15,31,29,27,26,24,22,89,80,71,30.32,30.16,4,2,11,0.00
2013-1-16,33,30,26,30,27,23,94,89,79,30.16,29.75,5,1,12,0.01
2013-1-17,34,25,18,29,18,8,91,73,61,30.13,29.79,14,4,19,0.00
2013-1-18,25,15,3,13,7,-3,89,69,52,30.41,30.08,8,2,15,0.00
2013-1-19,47,37,26,30,20,12,82,52,42,30.14,29.63,10,4,21,0.00
2013-4-11,36,34,32,36,32,29,96,93,89,30.05,29.97,9,4,28,0.05
2013-4-12,37,36,31,36,35,29,98,96,90,30.00,29.64,10,4,22,0.47
2013-4-13,38,38,37,38,37,36,98,97,96,29.77,29.75,5,3,12,0.00
2013-4-15,56,54,51,43,40,37,66,59,51,30.13,30.10,7,4,17,0.00
2013-4-16,59,55,47,54,47,40,90,76,62,30.14,29.91,10,6,24,0.52
2013-4-17,42,42,42,36,36,36,79,79,79,30.14,30.14,6,6,6,0.00
2013-4-18,62,59,57,51,50,50,77,73,68,29.89,29.86,11,8,30,0.00
2013-4-19,52,52,52,40,40,40,65,65,65,30.09,30.09,7,7,0,0.00
2013-4-20,52,52,52,40,40,40,65,65,65,30.09,30.09,7,7,0,0.00
2013-4-21,52,52,52,40,40,40,65,65,65,30.09,30.09,7,7,0,0.00
2013-4-22,52,52,52,40,40,40,65,65,65,30.09,30.09,7,7,0,0.00
2013-4-23,52,51,43,40,40,38,83,68,65,30.10,30.02,7,7,0,0.00
2013-4-24,71,51,36,57,44,35,95,78,48,30.01,29.60,16,3,19,0.32
2013-4-25,53,47,36,36,30,25,86,55,35,30.20,29.93,11,2,27,0.02
2013-4-26,51,41,32,38,35,30,95,79,46,30.42,30.23,6,2,10,0.03
2013-4-27,62,50,31,41,36,29,91,62,40,30.41,30.23,1,0,5,0.00
2013-4-28,71,59,41,45,39,35,93,52,27,30.21,30.00,5,2,0,0.00
2013-4-29,60,52,48,50,47,37,94,84,43,30.10,30.03,10,4,3,0.23
2013-4-30,67,60,49,53,50,47,92,71,56,30.19,30.09,7,3,12,0.00
2013-5-1,74,66,48,49,39,30,94,40,26,30.34,30.19,6,3,13,0.00
2013-5-2,79,69,55,50,45,38,78,46,24,30.36,30.20,4,1,7,0.00
2013-5-3,69,64,55,46,38,31,52,38,28,30.34,30.20,7,4,14,0.00
2013-5-4,73,64,50,47,42,33,81,47,29,30.25,30.11,4,2,11,0.00
2013-5-5,74,66,49,52,38,26,80,38,19,30.17,30.06,7,2,10,0.00
2013-5-6,76,66,51,48,39,28,59,39,21,30.15,30.00,4,1,9,0.00
2013-5-7,78,71,62,56,48,42,64,45,28,30.07,29.96,3,1,6,0.00
2013-5-8,65,59,53,58,53,50,90,81,59,30.04,30.00,6,2,11,0.00
2013-5-23,74,63,60,64,60,58,97,91,64,29.70,29.65,5,1,16,0.17
2013-5-24,61,45,41,60,44,40,98,97,96,30.04,29.64,10,3,22,0.06
2013-5-25,46,43,41,43,41,40,97,93,84,30.03,29.98,3,1,23,0.06
2013-5-26,43,42,42,40,40,40,94,92,88,29.98,29.94,3,1,13,0.07
2013-5-29,80,71,56,72,65,54,98,84,65,29.95,29.81,6,1,18,0.28
2013-6-2,79,69,61,70,65,58,96,86,64,29.77,29.63,10,1,28,0.24
2013-6-3,61,58,52,59,51,44,96,80,55,29.90,29.77,8,3,20,0.00
2013-6-4,65,57,45,50,44,39,92,64,45,30.10,29.92,9,4,20,0.00
2013-6-5,68,54,44,52,48,42,94,81,45,30.10,30.03,0,0,4,0.00
2013-6-6,62,57,52,58,53,47,97,86,70,30.04,29.86,6,2,16,0.00
2013-6-7,56,55,54,56,54,53,98,98,96,29.86,29.72,5,3,17,0.00
2013-6-8,64,58,54,60,56,54,99,95,87,30.00,29.69,8,2,17,0.00
2013-6-9,73,62,51,61,56,51,98,83,55,30.13,30.00,5,1,12,0.00
2013-6-10,62,60,53,60,59,52,98,96,84,30.12,29.75,8,4,25,0.01
2013-6-11,66,60,56,65,60,55,98,97,93,29.66,29.54,9,4,25,0.01
2013-6-12,56,55,53,56,54,52,97,97,96,29.77,29.65,7,4,17,0.01
2013-6-13,60,57,54,55,54,54,98,91,83,29.72,29.62,3,1,12,1.73
2013-6-14,72,63,52,64,58,52,98,86,73,29.86,29.68,9,3,16,0.01
2013-6-15,62,54,49,56,51,48,99,92,62,29.95,29.86,4,0,12,0.01
2013-6-16,69,56,51,57,50,48,92,82,63,29.92,29.78,2,1,6,0.00
2013-6-21,81,71,52,62,55,49,93,62,37,30.22,30.13,3,0,11,0.00
2013-6-22,83,74,59,70,63,54,87,69,50,30.14,29.99,5,1,16,0.00
2013-6-23,88,80,69,73,69,64,85,70,57,30.02,29.95,10,3,15,0.77
2013-6-24,86,74,65,76,68,62,95,83,64,29.98,29.89,14,2,18,0.77
2013-6-25,75,71,67,72,69,63,98,92,83,29.92,29.74,6,1,7,1.83
2013-6-26,80,73,64,72,68,63,98,85,65,29.78,29.73,5,1,10,0.29
2013-6-27,82,71,63,73,67,62,98,88,67,29.78,29.55,6,0,7,0.52
2013-6-28,73,69,62,68,65,61,99,90,78,29.55,29.42,5,2,7,1.74
2013-6-29,76,69,62,68,65,61,99,87,71,29.64,29.45,7,2,13,0.00
2013-6-30,82,73,61,74,68,60,98,85,65,29.85,29.64,4,0,5,0.20
2013-7-1,72,70,66,70,69,65,100,97,94,29.95,29.85,4,1,5,1.40
2013-7-2,81,71,65,75,70,65,100,96,76,30.06,29.94,5,0,10,0.43
2013-7-3,87,79,70,74,71,69,97,79,59,30.12,30.06,4,1,7,0.00
2013-7-4,75,75,72,71,70,70,97,86,85,30.10,30.09,2,1,8,0.02
2013-7-5,88,78,70,75,72,69,98,84,61,30.11,30.01,4,1,10,0.48
2013-7-6,82,74,67,73,69,66,99,87,65,30.10,30.00,5,1,10,0.02
2013-7-7,86,81,67,78,74,66,98,80,70,30.00,29.88,4,1,9,1.14
2013-7-8,81,74,67,73,69,66,99,85,71,29.99,29.90,6,2,8,0.06
2013-7-9,86,78,66,74,70,65,97,77,55,30.02,29.89,3,1,6,0.00
2013-7-10,82,76,71,74,72,68,93,85,75,29.89,29.69,5,2,12,0.00
2013-7-11,77,71,63,69,65,61,95,81,65,29.95,29.72,6,2,11,0.00
2013-7-12,78,73,64,68,65,62,97,76,57,30.11,30.05,2,0,5,0.00
2013-7-13,77,69,62,70,66,62,98,91,80,30.21,30.11,2,0,5,0.00
2013-7-14,87,76,65,74,70,64,99,83,61,30.27,30.18,4,1,10,0.00
2013-7-15,87,76,67,74,69,65,99,80,57,30.23,30.15,6,2,11,0.00
2013-7-16,88,76,64,74,69,64,99,81,56,30.21,30.15,6,2,10,0.00
2013-7-17,90,78,64,77,71,64,99,81,60,30.17,29.99,7,2,10,0.00
2013-7-18,90,83,74,77,74,71,92,76,60,30.02,29.89,6,2,11,0.04
2013-7-19,78,77,76,72,71,71,85,83,81,29.89,29.88,2,1,4,0.00
2013-7-20,78,71,64,70,65,61,93,82,72,29.78,29.67,7,2,13,0.19
2013-7-21,78,71,62,65,62,59,94,73,55,29.93,29.78,6,1,10,0.00
2013-7-22,80,70,62,72,67,60,95,89,76,29.93,29.74,2,0,5,0.39
2013-7-23,80,73,67,71,68,66,99,86,70,29.74,29.54,4,1,9,0.60
2013-7-24,70,61,49,67,56,48,96,83,71,29.98,29.58,7,3,14,0.00
2013-7-25,74,59,45,59,52,44,99,81,49,30.07,29.95,2,0,5,0.00
2013-7-26,78,69,54,62,58,52,96,71,48,30.04,29.96,3,1,7,0.00
2013-7-27,80,68,54,66,60,53,98,79,51,29.98,29.84,4,1,12,0.25
2013-7-28,67,65,62,66,64,61,99,96,94,29.92,29.81,7,1,9,0.17
2013-7-29,74,66,57,62,58,55,97,77,57,30.07,29.92,7,2,10,0.00
2013-7-30,72,64,56,63,58,54,96,81,63,30.13,30.06,8,2,12,0.00
2013-7-31,61,58,54,60,57,53,98,96,94,30.10,29.94,0,0,1,0.00
2013-8-1,75,67,61,69,64,58,97,91,81,29.94,29.71,8,2,12,0.47
2013-8-2,71,64,61,65,60,58,97,87,74,29.82,29.79,1,0,4,0.17
2013-8-3,74,68,58,65,58,54,92,73,57,29.86,29.80,9,4,14,0.05
2013-8-4,65,59,56,56,54,54,95,85,71,29.95,29.82,5,2,9,0.10
2013-8-5,73,63,51,55,52,49,95,70,46,30.01,29.95,5,1,8,0.00
2013-8-6,75,68,50,60,56,48,95,66,49,30.05,29.99,2,0,6,0.00
2013-8-7,73,70,66,66,64,57,88,80,71,30.01,29.90,6,2,11,0.00
2013-8-8,83,77,69,73,70,66,93,80,67,29.93,29.87,4,1,12,0.00
2013-8-9,76,71,66,73,69,63,96,93,85,29.87,29.75,6,2,10,0.06
2013-8-10,71,65,54,63,55,48,92,71,46,30.00,29.82,10,4,16,0.00
2013-8-11,75,65,53,61,55,51,96,73,50,30.06,29.99,5,1,10,0.00
2013-8-12,75,63,54,63,58,53,97,85,56,30.00,29.83,4,1,11,0.00
2013-8-13,71,65,57,69,62,52,97,90,81,29.83,29.63,8,2,14,0.86
2013-8-14,65,60,56,59,55,50,96,83,72,29.98,29.75,11,4,22,0.12
2013-8-15,72,60,54,58,54,50,97,79,56,30.08,29.98,9,2,18,0.00
2013-8-16,74,63,53,60,55,51,97,78,48,30.17,30.06,4,1,12,0.00
2013-8-17,78,66,51,62,56,50,98,74,46,30.26,30.17,3,0,7,0.00
2013-8-18,76,67,55,68,60,55,98,82,60,30.21,30.06,3,0,6,0.00
2013-8-23,76,66,53,62,57,52,96,74,54,30.11,30.02,3,1,12,0.00
2013-8-24,75,60,47,60,53,47,99,80,45,30.30,30.11,2,0,9,0.00
2013-8-25,80,70,51,62,58,50,97,66,46,30.28,30.07,6,2,14,0.00
2013-8-26,75,70,67,70,66,59,98,88,71,30.09,29.84,6,2,13,0.35
2013-8-27,78,73,64,71,68,64,99,86,73,29.89,29.83,3,0,7,0.01
2013-8-28,85,76,64,74,70,64,98,80,59,29.87,29.78,3,1,9,0.00
2013-8-29,85,72,65,72,68,63,99,88,55,29.98,29.86,3,0,7,0.04
2013-8-30,82,74,67,73,69,64,100,83,66,29.94,29.73,3,0,7,0.03
2013-8-31,80,74,68,74,71,66,96,88,79,29.78,29.68,5,2,13,0.12
2013-9-1,80,75,69,73,70,68,96,86,75,29.80,29.71,3,1,9,0.00
2013-9-2,81,76,65,74,70,62,98,83,72,29.75,29.58,14,1,17,1.05
2013-9-3,69,64,60,60,58,57,92,83,69,29.82,29.73,8,4,16,0.00
2013-9-4,74,69,59,61,58,54,89,70,52,29.92,29.86,9,3,17,0.00
2013-9-17,43,43,43,42,42,42,97,97,97,30.27,30.27,0,0,0,0.00
2013-9-18,72,61,51,56,51,47,95,72,48,30.26,30.07,2,0,4,0.00
2013-9-19,76,64,52,62,56,47,97,76,53,30.11,29.99,2,0,5,0.00
2013-9-20,78,68,50,61,58,50,97,72,49,29.99,29.83,4,1,9,0.00
2013-9-21,72,66,58,61,58,57,97,79,62,29.84,29.54,9,3,16,0.56
2013-9-22,58,52,44,57,47,41,97,84,65,29.92,29.57,11,3,18,0.03
2013-9-23,56,49,40,47,43,38,93,79,66,30.06,29.91,6,2,10,0.00
2013-9-24,60,51,40,51,45,38,96,81,67,30.06,29.92,9,3,14,0.00
2013-9-25,67,57,41,55,50,40,97,78,60,29.95,29.86,4,1,11,0.00
2013-9-26,68,58,51,56,52,48,97,81,58,30.07,29.99,2,1,8,0.00
2013-9-27,64,58,51,54,51,48,93,78,66,30.22,30.07,3,1,7,0.00
2013-9-28,70,61,43,58,53,43,97,74,57,30.27,30.16,3,1,6,0.00
2013-9-29,71,61,49,56,52,46,97,74,49,30.16,29.99,5,1,10,0.00
2013-9-30,74,60,46,60,52,44,97,79,47,30.00,29.91,2,0,3,0.00
2013-10-1,72,62,49,62,58,48,98,86,65,29.96,29.88,5,1,6,0.00
2013-10-2,73,65,52,66,58,50,91,80,71,30.00,29.86,8,3,14,0.00
2013-10-3,71,61,48,57,53,48,98,78,47,30.09,29.99,4,0,6,0.00
2013-10-4,63,60,58,60,58,56,96,94,92,30.00,29.95,3,1,7,0.57
2013-10-5,61,59,57,60,58,56,99,97,95,30.03,29.98,4,0,8,0.01
2013-10-6,65,59,53,63,58,52,99,97,94,29.98,29.85,6,3,12,0.37
2013-10-7,74,59,50,65,55,45,97,87,73,29.88,29.57,9,3,16,1.31
2013-10-8,61,52,40,50,44,39,97,78,53,30.33,29.89,9,2,12,0.00
2013-10-9,63,50,38,48,42,38,98,76,49,30.40,30.26,3,1,7,0.01
2013-10-10,63,55,45,49,44,39,94,70,43,30.26,30.11,2,0,4,0.00
2013-10-11,50,49,49,47,46,45,92,90,85,30.11,30.08,0,0,0,0.00
2013-10-12,71,63,54,55,52,46,90,68,54,30.22,30.14,7,4,11,0.00
2013-10-13,61,54,51,51,50,49,93,87,68,30.24,30.22,6,2,9,0.00
2013-10-14,61,56,54,56,54,50,97,96,71,30.25,30.20,2,0,4,0.01
2013-10-15,67,62,53,58,56,52,98,82,68,30.20,29.98,3,1,6,0.00
2013-10-16,57,56,55,54,54,53,93,91,90,29.98,29.97,0,0,0,0.00
2013-10-17,65,58,51,53,51,49,97,78,58,29.81,29.58,4,1,11,0.74
2013-10-18,58,52,42,51,44,39,98,79,50,29.87,29.59,13,4,19,0.12
2013-10-19,62,55,45,48,44,38,93,70,45,29.86,29.59,6,2,18,0.03
2013-10-20,54,50,46,42,40,37,83,68,54,29.96,29.84,9,3,14,0.02
2013-10-21,47,46,46,41,41,41,82,81,80,29.95,29.94,0,0,0,0.00
2013-10-22,49,43,36,42,37,32,90,78,62,29.79,29.72,7,2,15,0.00
2013-10-23,47,42,37,38,36,33,100,80,62,29.77,29.59,5,1,7,0.06
2013-10-24,45,38,32,37,34,30,97,85,58,29.88,29.69,11,3,16,0.18
2013-10-25,45,39,35,38,36,34,96,90,71,30.10,29.88,8,2,12,0.09
2013-10-26,39,38,37,37,36,35,93,92,92,30.08,30.07,1,0,2,0.00
2013-10-27,42,40,40,37,34,33,84,80,78,30.00,29.85,7,2,7,0.01
2013-10-28,39,39,39,33,33,33,78,78,78,30.00,30.00,1,1,6,0.01
2013-12-8,29,25,24,21,19,17,87,77,64,30.49,30.29,6,1,18,0.00
2013-12-9,39,33,24,37,30,21,95,88,78,30.31,29.84,9,5,18,0.19
2013-12-10,33,24,20,27,19,16,92,81,66,29.96,29.82,12,5,15,0.00
2013-12-11,22,21,20,15,13,11,75,71,67,29.99,29.96,10,8,12,0.00
2013-12-12,18,16,13,14,11,8,87,78,70,30.26,29.96,8,4,20,0.00
2013-12-13,22,19,13,20,14,8,92,79,70,30.21,29.91,14,7,22,0.01
2013-12-14,11,9,8,9,7,5,90,89,86,30.33,29.89,16,11,22,0.00
2013-12-15,24,21,11,22,18,9,93,90,81,29.87,29.57,17,7,23,0.00
2013-12-16,22,20,19,16,13,10,80,72,67,29.73,29.70,14,12,23,0.00